createdAt,value
2018-04-29T00:00:19.585Z,67.00
2018-04-29T00:02:48.095Z,66.90
2018-04-29T00:05:16.090Z,66.00
2018-04-29T00:07:44.871Z,66.00
2018-04-29T00:10:12.868Z,65.90
2018-04-29T00:12:41.627Z,66.00
2018-04-29T00:15:09.626Z,66.00
2018-04-29T00:17:37.631Z,65.50
2018-04-29T00:20:06.398Z,65.10
2018-04-29T00:22:34.407Z,65.00
2018-04-29T00:25:02.420Z,65.40
2018-04-29T00:27:30.410Z,65.20
2018-04-29T00:29:58.416Z,64.60
2018-04-29T00:32:26.428Z,65.00
2018-04-29T00:34:54.419Z,65.10
2018-04-29T00:37:22.447Z,64.30
2018-04-29T00:39:50.443Z,63.90
2018-04-29T00:42:18.455Z,62.40
2018-04-29T00:44:46.471Z,62.60
2018-04-29T00:47:14.612Z,61.70
2018-04-29T00:49:42.644Z,61.50
2018-04-29T00:52:11.466Z,60.80
2018-04-29T00:54:39.502Z,60.70
2018-04-29T00:57:08.544Z,60.20
2018-04-29T00:59:37.339Z,59.20
2018-04-29T01:02:06.159Z,60.40
2018-04-29T01:04:34.607Z,60.30
2018-04-29T01:07:02.675Z,60.40
2018-04-29T01:09:30.708Z,62.60
2018-04-29T01:11:58.770Z,63.00
2018-04-29T01:14:26.819Z,62.90
2018-04-29T01:16:54.884Z,63.80
2018-04-29T01:19:22.937Z,63.60
2018-04-29T01:21:51.743Z,65.00
2018-04-29T01:24:20.559Z,67.10
2018-04-29T01:26:48.602Z,66.20
2018-04-29T01:29:16.652Z,66.20
2018-04-29T01:31:44.685Z,66.20
2018-04-29T01:34:13.522Z,66.20
2018-04-29T01:36:41.543Z,66.10
2018-04-29T01:39:09.597Z,66.70
2018-04-29T01:41:37.631Z,68.10
2018-04-29T01:44:05.683Z,68.40
2018-04-29T01:46:33.740Z,67.70
2018-04-29T01:49:01.778Z,68.50
2018-04-29T01:51:29.823Z,66.10
2018-04-29T01:53:57.858Z,66.20
2018-04-29T01:56:26.685Z,66.20
2018-04-29T01:58:54.731Z,66.20
2018-04-29T02:01:24.683Z,65.50
2018-04-29T02:03:52.972Z,65.50
2018-04-29T02:06:21.776Z,66.00
2018-04-29T02:08:50.603Z,65.70
2018-04-29T02:11:18.635Z,65.60
2018-04-29T02:13:48.203Z,65.50
2018-04-29T02:16:17.004Z,65.00
2018-04-29T02:18:45.059Z,64.90
2018-04-29T02:21:13.861Z,66.50
2018-04-29T02:23:42.676Z,66.60
2018-04-29T02:26:10.737Z,66.50
2018-04-29T02:28:38.873Z,68.30
2018-04-29T02:31:06.934Z,68.60
2018-04-29T02:33:34.962Z,70.80
2018-04-29T02:36:03.020Z,72.20
2018-04-29T02:38:31.051Z,72.30
2018-04-29T02:41:00.152Z,72.90
2018-04-29T02:43:28.343Z,73.60
2018-04-29T02:45:56.403Z,72.90
2018-04-29T02:48:24.467Z,73.00
2018-04-29T02:50:52.501Z,75.50
2018-04-29T02:53:20.554Z,76.30
2018-04-29T02:55:48.587Z,77.40
2018-04-29T02:58:17.404Z,78.20
2018-04-29T03:00:46.208Z,78.40
2018-04-29T03:03:14.262Z,78.20
2018-04-29T03:05:43.069Z,81.00
2018-04-29T03:08:11.883Z,80.80
2018-04-29T03:10:39.936Z,80.70
2018-04-29T03:13:09.484Z,80.40
2018-04-29T03:15:38.315Z,80.10
2018-04-29T03:18:06.349Z,80.10
2018-04-29T03:20:34.399Z,80.70
2018-04-29T03:23:02.435Z,81.60
2018-04-29T03:25:31.257Z,84.30
2018-04-29T03:27:59.369Z,84.20
2018-04-29T03:30:28.148Z,83.50
2018-04-29T03:32:56.187Z,84.20
2018-04-29T03:35:25.012Z,83.10
2018-04-29T03:37:53.832Z,82.60
2018-04-29T03:40:21.872Z,82.60
2018-04-29T03:42:49.927Z,83.70
2018-04-29T03:45:17.959Z,84.50
2018-04-29T03:47:46.778Z,85.30
2018-04-29T03:50:14.812Z,85.30
2018-04-29T03:52:42.864Z,85.00
2018-04-29T03:55:10.904Z,84.20
2018-04-29T03:57:51.592Z,84.30
2018-04-29T04:00:32.204Z,84.30
2018-04-29T04:03:12.784Z,84.20
2018-04-29T04:05:40.815Z,84.10
2018-04-29T04:08:08.877Z,85.10
2018-04-29T04:10:36.938Z,86.00
2018-04-29T04:13:04.968Z,84.80
2018-04-29T04:15:33.795Z,86.80
2018-04-29T04:18:01.831Z,86.40
2018-04-29T04:20:29.880Z,86.40
2018-04-29T04:22:57.916Z,85.30
2018-04-29T04:25:26.211Z,85.40
2018-04-29T04:27:55.015Z,84.80
2018-04-29T04:30:23.063Z,84.80
2018-04-29T04:32:51.091Z,84.80
2018-04-29T04:35:19.887Z,84.80
2018-04-29T04:37:48.712Z,85.60
2018-04-29T04:40:17.532Z,85.20
2018-04-29T04:42:45.587Z,85.20
2018-04-29T04:45:13.618Z,85.90
2018-04-29T04:47:41.688Z,85.90
2018-04-29T04:50:09.711Z,85.70
2018-04-29T04:52:37.778Z,85.90
2018-04-29T04:55:05.825Z,85.40
2018-04-29T04:57:33.859Z,85.40
2018-04-29T05:00:01.911Z,85.90
2018-04-29T05:02:29.971Z,85.50
2018-04-29T05:04:58.011Z,85.40
2018-04-29T05:07:26.066Z,84.90
2018-04-29T05:09:54.135Z,84.80
2018-04-29T05:12:22.341Z,84.80
2018-04-29T05:14:51.620Z,84.90
2018-04-29T05:17:19.670Z,84.90
2018-04-29T05:19:47.711Z,83.40
2018-04-29T05:22:15.766Z,82.50
2018-04-29T05:24:43.819Z,82.90
2018-04-29T05:27:11.866Z,83.00
2018-04-29T05:29:39.929Z,83.80
2018-04-29T05:32:07.985Z,82.90
2018-04-29T05:34:36.012Z,81.90
2018-04-29T05:37:04.067Z,81.90
2018-04-29T05:39:32.876Z,82.60
2018-04-29T05:42:00.931Z,82.50
2018-04-29T05:44:29.763Z,77.80
2018-04-29T05:46:57.829Z,77.70
2018-04-29T05:49:26.643Z,75.60
2018-04-29T05:51:55.474Z,74.30
2018-04-29T05:54:23.543Z,74.30
2018-04-29T05:56:51.601Z,74.00
2018-04-29T05:59:20.437Z,73.20
2018-04-29T06:01:48.453Z,73.20
2018-04-29T06:04:16.507Z,72.60
2018-04-29T06:06:44.569Z,72.30
2018-04-29T06:09:13.383Z,70.60
2018-04-29T06:11:41.437Z,70.50
2018-04-29T06:14:09.577Z,71.80
2018-04-29T06:16:37.563Z,71.40
2018-04-29T06:19:05.618Z,68.40
2018-04-29T06:21:33.660Z,69.20
2018-04-29T06:24:01.715Z,68.60
2018-04-29T06:26:29.761Z,66.40
2018-04-29T06:28:58.576Z,67.30
2018-04-29T06:31:26.621Z,67.20
2018-04-29T06:33:56.170Z,63.50
2018-04-29T06:36:24.237Z,63.50
2018-04-29T06:38:53.073Z,63.70
2018-04-29T06:41:21.140Z,63.60
2018-04-29T06:43:49.244Z,63.10
2018-04-29T06:46:17.235Z,63.50
2018-04-29T06:48:45.283Z,60.70
2018-04-29T06:51:14.109Z,60.30
2018-04-29T06:53:42.141Z,60.30
2018-04-29T06:56:10.200Z,59.90
2018-04-29T06:58:38.252Z,60.00
2018-04-29T07:01:06.459Z,60.10
2018-04-29T07:03:34.513Z,60.10
2018-04-29T07:06:03.307Z,57.70
2018-04-29T07:08:32.213Z,58.50
2018-04-29T07:11:00.192Z,58.50
2018-04-29T07:13:29.000Z,56.50
2018-04-29T07:15:57.060Z,56.40
2018-04-29T07:18:25.095Z,56.80
2018-04-29T07:20:53.173Z,55.70
2018-04-29T07:23:21.213Z,55.30
2018-04-29T07:25:50.035Z,53.50
2018-04-29T07:28:18.076Z,53.00
2018-04-29T07:30:46.139Z,52.80
2018-04-29T07:33:14.214Z,49.20
2018-04-29T07:35:42.648Z,48.40
2018-04-29T07:38:10.698Z,48.10
2018-04-29T07:40:38.761Z,47.90
2018-04-29T07:43:06.812Z,46.30
2018-04-29T07:45:34.848Z,44.50
2018-04-29T07:48:02.907Z,44.60
2018-04-29T07:50:30.949Z,43.40
2018-04-29T07:52:59.013Z,44.10
2018-04-29T07:55:27.058Z,43.90
2018-04-29T07:57:55.143Z,43.70
2018-04-29T08:00:23.199Z,43.00
2018-04-29T08:02:52.016Z,42.50
2018-04-29T08:05:20.852Z,43.60
2018-04-29T08:07:48.891Z,43.50
2018-04-29T08:10:17.728Z,41.40
2018-04-29T08:12:45.764Z,41.50
2018-04-29T08:15:13.827Z,41.70
2018-04-29T08:17:41.874Z,42.00
2018-04-29T08:20:09.975Z,42.00
2018-04-29T08:22:38.052Z,41.80
2018-04-29T08:25:06.102Z,42.40
2018-04-29T08:27:34.922Z,40.00
2018-04-29T08:30:03.061Z,39.90
2018-04-29T08:32:31.804Z,39.40
2018-04-29T08:34:59.860Z,39.30
2018-04-29T08:37:27.948Z,39.40
2018-04-29T08:39:56.021Z,39.70
2018-04-29T08:42:24.089Z,39.50
2018-04-29T08:44:52.143Z,40.20
2018-04-29T08:47:20.183Z,40.10
2018-04-29T08:49:49.007Z,40.40
2018-04-29T08:52:17.046Z,40.20
2018-04-29T08:54:45.112Z,38.40
2018-04-29T08:57:13.167Z,38.60
2018-04-29T08:59:41.255Z,38.90
2018-04-29T09:02:09.305Z,38.60
2018-04-29T09:04:37.362Z,38.00
2018-04-29T09:07:05.428Z,38.00
2018-04-29T09:09:33.468Z,38.20
2018-04-29T09:12:02.299Z,36.00
2018-04-29T09:14:30.337Z,36.00
2018-04-29T09:16:59.173Z,37.00
2018-04-29T09:19:27.663Z,36.90
2018-04-29T09:21:55.738Z,37.60
2018-04-29T09:24:24.566Z,37.00
2018-04-29T09:26:52.627Z,36.80
2018-04-29T09:29:20.703Z,36.50
2018-04-29T09:31:49.515Z,37.70
2018-04-29T09:34:17.588Z,37.40
2018-04-29T09:36:46.410Z,36.30
2018-04-29T09:39:14.471Z,36.30
2018-04-29T09:41:43.275Z,36.60
2018-04-29T09:44:12.110Z,38.10
2018-04-29T09:46:40.177Z,38.00
2018-04-29T09:49:08.988Z,37.40
2018-04-29T09:51:37.056Z,37.50
2018-04-29T09:54:47.930Z,37.00
2018-04-29T09:57:15.991Z,36.90
2018-04-29T09:59:44.029Z,34.70
2018-04-29T10:02:12.093Z,35.30
2018-04-29T10:04:40.904Z,32.80
2018-04-29T10:07:08.964Z,32.70
2018-04-29T10:09:37.056Z,34.90
2018-04-29T10:12:05.083Z,34.20
2018-04-29T10:14:33.410Z,33.20
2018-04-29T10:17:01.471Z,34.80
2018-04-29T10:19:29.536Z,36.20
2018-04-29T10:21:57.575Z,33.80
2018-04-29T10:24:25.638Z,35.60
2018-04-29T10:26:53.676Z,34.50
2018-04-29T10:29:21.739Z,34.00
2018-04-29T10:31:50.539Z,33.80
2018-04-29T10:34:19.363Z,33.90
2018-04-29T10:36:47.404Z,33.90
2018-04-29T10:39:15.463Z,32.90
2018-04-29T10:41:43.773Z,34.60
2018-04-29T10:44:11.825Z,32.40
2018-04-29T10:46:39.887Z,31.20
2018-04-29T10:49:07.927Z,31.20
2018-04-29T10:51:35.987Z,31.20
2018-04-29T10:54:04.024Z,34.00
2018-04-29T10:56:32.937Z,33.20
2018-04-29T10:59:01.211Z,33.30
2018-04-29T11:01:30.032Z,31.80
2018-04-29T11:03:58.116Z,32.00
2018-04-29T11:06:26.188Z,31.60
2018-04-29T11:08:54.983Z,31.70
2018-04-29T11:11:23.812Z,29.20
2018-04-29T11:13:51.844Z,29.20
2018-04-29T11:16:19.903Z,29.60
2018-04-29T11:18:47.955Z,29.80
2018-04-29T11:21:15.991Z,30.50
2018-04-29T11:23:44.054Z,29.40
2018-04-29T11:26:12.103Z,29.40
2018-04-29T11:28:40.210Z,29.40
2018-04-29T11:31:08.987Z,29.90
2018-04-29T11:33:37.056Z,30.00
2018-04-29T11:36:05.859Z,27.30
2018-04-29T11:38:34.681Z,26.50
2018-04-29T11:41:02.739Z,26.50
2018-04-29T11:43:31.544Z,27.50
2018-04-29T11:46:00.359Z,29.20
2018-04-29T11:48:28.403Z,28.70
2018-04-29T11:50:56.484Z,26.50
2018-04-29T11:53:24.515Z,26.00
2018-04-29T11:55:52.578Z,26.10
2018-04-29T11:58:21.392Z,27.50
2018-04-29T12:00:50.211Z,25.80
2018-04-29T12:03:18.265Z,25.80
2018-04-29T12:05:48.088Z,25.00
2018-04-29T12:08:16.140Z,24.90
2018-04-29T12:10:44.192Z,26.70
2018-04-29T12:13:12.239Z,26.30
2018-04-29T12:15:40.274Z,25.20
2018-04-29T12:18:08.353Z,25.70
2018-04-29T12:20:36.392Z,25.90
2018-04-29T12:23:05.235Z,24.20
2018-04-29T12:25:33.272Z,24.10
2018-04-29T12:28:01.328Z,26.10
2018-04-29T12:30:29.363Z,23.60
2018-04-29T12:32:58.183Z,23.90
2018-04-29T12:35:26.223Z,23.90
2018-04-29T12:37:54.278Z,23.60
2018-04-29T12:40:22.349Z,22.90
2018-04-29T12:42:50.382Z,23.20
2018-04-29T12:45:19.208Z,23.30
2018-04-29T12:47:47.244Z,23.20
2018-04-29T12:50:15.295Z,22.60
2018-04-29T12:52:43.336Z,22.50
2018-04-29T12:55:11.439Z,20.60
2018-04-29T12:57:39.475Z,21.00
2018-04-29T13:00:07.638Z,21.60
2018-04-29T13:02:35.613Z,22.10
2018-04-29T13:05:03.656Z,22.20
2018-04-29T13:07:32.477Z,19.90
2018-04-29T13:10:00.584Z,19.90
2018-04-29T13:12:28.644Z,19.70
2018-04-29T13:14:56.719Z,20.10
2018-04-29T13:17:25.527Z,19.70
2018-04-29T13:19:54.352Z,18.70
2018-04-29T13:22:22.400Z,18.70
2018-04-29T13:24:51.237Z,19.50
2018-04-29T13:27:19.271Z,19.50
2018-04-29T13:29:47.338Z,18.60
2018-04-29T13:32:15.375Z,18.00
2018-04-29T13:34:43.434Z,18.80
2018-04-29T13:37:12.242Z,17.70
2018-04-29T13:39:41.060Z,18.50
2018-04-29T13:42:09.172Z,18.50
2018-04-29T13:44:37.204Z,17.90
2018-04-29T13:47:05.260Z,17.30
2018-04-29T13:49:33.307Z,18.70
2018-04-29T13:52:01.367Z,16.20
2018-04-29T13:54:30.179Z,17.40
2018-04-29T13:56:58.995Z,17.90
2018-04-29T13:59:27.045Z,17.90
2018-04-29T14:01:55.189Z,16.70
2018-04-29T14:04:24.683Z,17.40
2018-04-29T14:06:53.577Z,17.40
2018-04-29T14:09:21.679Z,18.60
2018-04-29T14:11:49.706Z,15.20
2018-04-29T14:14:17.772Z,17.10
2018-04-29T14:16:45.815Z,16.70
2018-04-29T14:19:13.878Z,15.20
2018-04-29T14:21:42.675Z,15.40
2018-04-29T14:24:11.495Z,16.50
2018-04-29T14:26:39.536Z,16.50
2018-04-29T14:29:07.591Z,15.80
2018-04-29T14:31:35.710Z,15.10
2018-04-29T14:34:03.827Z,15.00
2018-04-29T14:36:31.913Z,14.80
2018-04-29T14:39:00.724Z,14.50
2018-04-29T14:41:29.551Z,15.30
2018-04-29T14:43:57.604Z,15.30
2018-04-29T14:46:26.431Z,12.90
2018-04-29T14:48:54.468Z,13.00
2018-04-29T14:51:24.029Z,13.20
2018-04-29T14:53:52.099Z,13.10
2018-04-29T14:56:20.164Z,13.70
2018-04-29T14:58:48.977Z,14.90
2018-04-29T15:01:17.799Z,15.20
2018-04-29T15:03:46.525Z,15.20
2018-04-29T15:06:14.552Z,15.10
2018-04-29T15:08:43.379Z,16.20
2018-04-29T15:11:11.416Z,15.80
2018-04-29T15:13:39.475Z,14.90
2018-04-29T15:16:07.514Z,14.40
2018-04-29T15:18:48.067Z,15.60
2018-04-29T15:21:16.110Z,15.50
2018-04-29T15:23:44.219Z,14.00
2018-04-29T15:26:12.280Z,15.10
2018-04-29T15:28:40.455Z,15.70
2018-04-29T15:31:08.511Z,15.30
2018-04-29T15:33:37.355Z,15.10
2018-04-29T15:36:05.530Z,15.10
2018-04-29T15:38:33.596Z,15.90
2018-04-29T15:41:01.660Z,14.20
2018-04-29T15:43:29.701Z,14.80
2018-04-29T15:45:57.759Z,13.50
2018-04-29T15:48:25.821Z,15.40
2018-04-29T15:50:54.636Z,15.50
2018-04-29T15:53:22.703Z,15.60
2018-04-29T15:55:51.511Z,15.30
2018-04-29T15:58:20.328Z,16.30
2018-04-29T16:00:48.373Z,16.30
2018-04-29T16:03:16.425Z,15.50
2018-04-29T16:05:45.594Z,15.50
2018-04-29T16:08:14.417Z,16.30
2018-04-29T16:10:42.475Z,16.20
2018-04-29T16:13:11.290Z,15.90
2018-04-29T16:15:40.113Z,16.80
2018-04-29T16:18:08.151Z,16.80
2018-04-29T16:20:36.223Z,15.90
2018-04-29T16:23:04.256Z,17.30
2018-04-29T16:25:32.329Z,17.30
2018-04-29T16:28:01.132Z,16.00
2018-04-29T16:30:29.428Z,16.00
2018-04-29T16:32:57.503Z,18.40
2018-04-29T16:35:26.315Z,18.40
2018-04-29T16:37:54.413Z,18.30
2018-04-29T16:40:23.209Z,19.80
2018-04-29T16:42:51.271Z,19.70
2018-04-29T16:45:20.080Z,19.70
2018-04-29T16:47:48.141Z,19.70
2018-04-29T16:50:16.948Z,19.50
2018-04-29T16:52:45.771Z,19.50
2018-04-29T16:55:13.837Z,19.30
2018-04-29T16:57:42.636Z,20.30
2018-04-29T17:00:11.459Z,19.50
2018-04-29T17:02:39.504Z,19.50
2018-04-29T17:05:07.560Z,18.80
2018-04-29T17:07:35.599Z,18.30
2018-04-29T17:10:03.740Z,19.00
2018-04-29T17:12:31.780Z,19.00
2018-04-29T17:14:59.841Z,18.50
2018-04-29T17:17:27.883Z,18.60
2018-04-29T17:19:55.953Z,18.60
2018-04-29T17:22:24.016Z,17.70
2018-04-29T17:24:52.079Z,17.80
2018-04-29T17:27:20.898Z,17.60
2018-04-29T17:29:48.935Z,17.60
2018-04-29T17:32:17.000Z,17.50
2018-04-29T17:34:45.042Z,18.10
2018-04-29T17:37:13.113Z,18.70
2018-04-29T17:39:41.919Z,19.00
2018-04-29T17:42:10.763Z,19.80
2018-04-29T17:44:38.800Z,19.70
2018-04-29T17:47:06.852Z,20.60
2018-04-29T17:49:34.915Z,20.40
2018-04-29T17:52:02.963Z,20.30
2018-04-29T17:54:31.789Z,22.00
2018-04-29T17:56:59.828Z,21.90
2018-04-29T17:59:27.892Z,21.90
2018-04-29T18:01:55.936Z,22.20
2018-04-29T18:04:23.991Z,23.50
2018-04-29T18:06:52.914Z,23.30
2018-04-29T18:09:21.738Z,23.90
2018-04-29T18:11:49.812Z,23.90
2018-04-29T18:14:17.843Z,24.20
2018-04-29T18:16:45.899Z,25.40
2018-04-29T18:19:13.943Z,25.30
2018-04-29T18:21:42.774Z,25.80
2018-04-29T18:24:10.813Z,25.70
2018-04-29T18:26:38.864Z,26.00
2018-04-29T18:29:06.903Z,26.40
2018-04-29T18:31:35.008Z,27.40
2018-04-29T18:34:03.075Z,27.50
2018-04-29T18:36:31.120Z,27.60
2018-04-29T18:38:59.193Z,27.70
2018-04-29T18:41:27.216Z,28.30
2018-04-29T18:43:56.047Z,29.00
2018-04-29T18:46:24.076Z,28.90
2018-04-29T18:48:52.144Z,29.40
2018-04-29T18:51:20.310Z,29.40
2018-04-29T18:53:48.266Z,29.30
2018-04-29T18:56:16.339Z,29.90
2018-04-29T18:58:44.372Z,30.30
2018-04-29T19:01:13.220Z,30.40
2018-04-29T19:03:42.027Z,31.80
2018-04-29T19:06:10.879Z,31.00
2018-04-29T19:08:38.924Z,30.90
2018-04-29T19:11:07.016Z,31.40
2018-04-29T19:13:35.060Z,31.90
2018-04-29T19:16:03.904Z,32.80
2018-04-29T19:18:31.945Z,32.70
2018-04-29T19:21:00.780Z,33.20
2018-04-29T19:23:28.830Z,32.80
2018-04-29T19:25:56.900Z,33.30
2018-04-29T19:28:24.967Z,33.80
2018-04-29T19:30:53.016Z,34.40
2018-04-29T19:33:21.104Z,34.70
2018-04-29T19:35:49.149Z,35.00
2018-04-29T19:38:17.220Z,35.10
2018-04-29T19:40:45.264Z,36.00
2018-04-29T19:43:13.332Z,36.00
2018-04-29T19:45:41.407Z,36.20
2018-04-29T19:48:10.219Z,36.60
2018-04-29T19:50:38.280Z,36.60
2018-04-29T19:53:07.091Z,36.50
2018-04-29T19:55:37.851Z,37.00
2018-04-29T19:58:05.896Z,36.90
2018-04-29T20:00:33.996Z,37.70
2018-04-29T20:03:02.035Z,37.30
2018-04-29T20:05:30.097Z,37.60
2018-04-29T20:07:58.147Z,37.20
2018-04-29T20:10:26.211Z,37.40
2018-04-29T20:12:54.316Z,38.30
2018-04-29T20:15:23.124Z,38.20
2018-04-29T20:17:51.951Z,37.30
2018-04-29T20:20:20.002Z,37.20
2018-04-29T20:22:48.835Z,37.40
2018-04-29T20:25:16.881Z,37.40
2018-04-29T20:27:46.471Z,37.10
2018-04-29T20:30:14.507Z,37.10
2018-04-29T20:32:45.475Z,36.60
2018-04-29T20:35:13.515Z,36.60
2018-04-29T20:37:41.590Z,37.20
2018-04-29T20:40:09.632Z,37.20
2018-04-29T20:42:37.683Z,36.70
2018-04-29T20:45:06.488Z,36.70
2018-04-29T20:47:35.311Z,36.10
2018-04-29T20:50:03.355Z,35.90
2018-04-29T20:52:32.919Z,35.60
2018-04-29T20:55:00.975Z,35.60
2018-04-29T20:57:29.089Z,35.80
2018-04-29T20:59:57.089Z,35.80
2018-04-29T21:02:25.170Z,36.50
2018-04-29T21:04:53.352Z,37.00
2018-04-29T21:07:21.392Z,37.40
2018-04-29T21:09:50.215Z,38.60
2018-04-29T21:12:18.296Z,38.50
2018-04-29T21:14:47.125Z,38.90
2018-04-29T21:17:15.205Z,38.80
2018-04-29T21:19:44.016Z,39.40
2018-04-29T21:22:12.064Z,39.40
2018-04-29T21:24:40.879Z,39.80
2018-04-29T21:27:08.939Z,39.70
2018-04-29T21:29:37.758Z,39.80
2018-04-29T21:32:06.584Z,39.90
2018-04-29T21:34:34.634Z,39.80
2018-04-29T21:37:03.465Z,40.50
2018-04-29T21:39:31.913Z,40.40
2018-04-29T21:41:59.980Z,40.40
2018-04-29T21:44:28.028Z,40.50
2018-04-29T21:46:56.092Z,40.50
2018-04-29T21:49:24.135Z,40.50
2018-04-29T21:51:52.211Z,40.70
2018-04-29T21:54:20.285Z,40.50
2018-04-29T21:56:48.331Z,40.40
2018-04-29T21:59:16.392Z,40.60
2018-04-29T22:01:45.223Z,40.50
2018-04-29T22:04:13.343Z,40.50
2018-04-29T22:06:41.384Z,40.50
2018-04-29T22:09:09.447Z,40.60
2018-04-29T22:11:38.264Z,40.40
2018-04-29T22:14:07.094Z,40.50
2018-04-29T22:16:35.146Z,40.50
2018-04-29T22:19:03.968Z,40.30
2018-04-29T22:21:32.017Z,40.20
2018-04-29T22:24:00.836Z,40.50
2018-04-29T22:26:29.655Z,40.50
2018-04-29T22:28:57.700Z,40.40
2018-04-29T22:31:27.275Z,40.40
2018-04-29T22:33:55.322Z,40.40
2018-04-29T22:36:24.139Z,40.80
2018-04-29T22:38:52.203Z,40.40
2018-04-29T22:41:21.027Z,40.50
2018-04-29T22:43:49.072Z,40.50
2018-04-29T22:46:17.387Z,40.70
2018-04-29T22:48:46.303Z,40.80
2018-04-29T22:51:14.357Z,40.80
2018-04-29T22:53:42.422Z,40.70
2018-04-29T22:56:10.464Z,41.00
2018-04-29T22:58:38.527Z,41.00
2018-04-29T23:01:07.382Z,41.10
2018-04-29T23:03:35.432Z,41.10
2018-04-29T23:06:03.475Z,40.70
2018-04-29T23:08:31.539Z,40.90
2018-04-29T23:10:59.596Z,41.70
2018-04-29T23:13:27.652Z,41.30
2018-04-29T23:15:56.530Z,41.40
2018-04-29T23:18:24.551Z,41.20
2018-04-29T23:20:52.915Z,40.40
2018-04-29T23:23:21.719Z,40.00
2018-04-29T23:25:50.539Z,40.90
2018-04-29T23:28:18.580Z,40.90
2018-04-29T23:30:48.145Z,40.60
2018-04-29T23:33:16.207Z,40.50
2018-04-29T23:35:45.015Z,39.90
2018-04-29T23:38:13.827Z,39.70
2018-04-29T23:40:42.639Z,39.70
2018-04-29T23:43:11.461Z,39.20
2018-04-29T23:45:39.504Z,39.20
2018-04-29T23:48:08.332Z,39.50
2018-04-29T23:50:36.366Z,39.00
2018-04-29T23:53:04.432Z,38.40
2018-04-29T23:55:32.496Z,38.10
2018-04-29T23:58:00.539Z,37.70
